createdAt,value
2023-03-08T00:02:14.061Z,97820.28
2023-03-08T00:04:40.631Z,97815.72
2023-03-08T00:07:07.139Z,97814.75
2023-03-08T00:09:33.621Z,97820.03
2023-03-08T00:12:00.043Z,97821.00
2023-03-08T00:14:26.534Z,97823.63
2023-03-08T00:16:52.918Z,97810.06
2023-03-08T00:19:19.339Z,97814.75
2023-03-08T00:21:45.815Z,97819.53
2023-03-08T00:24:12.856Z,97813.19
2023-03-08T00:26:39.720Z,97821.00
2023-03-08T00:29:06.874Z,97809.09
2023-03-08T00:31:33.543Z,97814.25
2023-03-08T00:34:00.325Z,97816.19
2023-03-08T00:36:26.779Z,97811.50
2023-03-08T00:38:53.744Z,97811.63
2023-03-08T00:41:20.582Z,97806.22
2023-03-08T00:43:47.189Z,97812.38
2023-03-08T00:46:14.161Z,97814.50
2023-03-08T00:48:41.543Z,97810.91
2023-03-08T00:51:08.857Z,97812.22
2023-03-08T00:53:35.887Z,97809.34
2023-03-08T00:56:02.333Z,97803.09
2023-03-08T00:58:30.961Z,97804.78
2023-03-08T01:00:58.519Z,97800.94
2023-03-08T01:03:26.686Z,97795.41
2023-03-08T01:05:55.705Z,97799.84
2023-03-08T01:08:23.816Z,97798.91
2023-03-08T01:10:52.893Z,97791.94
2023-03-08T01:13:20.840Z,97786.44
2023-03-08T01:15:47.540Z,97789.06
2023-03-08T01:18:14.134Z,97785.59
2023-03-08T01:20:41.384Z,97786.47
2023-03-08T01:23:08.057Z,97783.81
2023-03-08T01:25:35.139Z,97776.13
2023-03-08T01:28:01.632Z,97762.56
2023-03-08T01:30:28.583Z,97766.53
2023-03-08T01:32:54.982Z,97761.38
2023-03-08T01:35:21.511Z,97756.22
2023-03-08T01:37:53.380Z,97757.97
2023-03-08T01:40:20.772Z,97755.72
2023-03-08T01:42:47.949Z,97752.00
2023-03-08T01:45:51.862Z,97743.97
2023-03-08T01:48:23.626Z,97743.97
2023-03-08T01:50:50.063Z,97738.34
2023-03-08T01:53:17.199Z,97740.16
2023-03-08T01:55:43.659Z,97738.09
2023-03-08T01:58:10.459Z,97729.81
2023-03-08T02:00:38.833Z,97725.03
2023-03-08T02:03:09.105Z,97721.53
2023-03-08T02:05:44.749Z,97714.00
2023-03-08T02:08:11.220Z,97711.13
2023-03-08T02:10:38.309Z,97699.72
2023-03-08T02:13:07.277Z,97702.22
2023-03-08T02:15:34.299Z,97688.91
2023-03-08T02:18:00.715Z,97695.63
2023-03-08T02:20:36.461Z,97691.69
2023-03-08T02:23:20.903Z,97695.88
2023-03-08T02:25:54.901Z,97693.97
2023-03-08T02:28:22.763Z,97694.66
2023-03-08T02:30:50.105Z,97690.25
2023-03-08T02:33:17.809Z,97684.09
2023-03-08T02:35:45.263Z,97681.63
2023-03-08T02:38:15.069Z,97684.47
2023-03-08T02:40:41.844Z,97689.50
2023-03-08T02:43:08.664Z,97688.09
2023-03-08T02:45:35.433Z,97681.34
2023-03-08T02:48:05.798Z,97676.94
2023-03-08T02:50:32.342Z,97675.84
2023-03-08T02:52:59.489Z,97667.94
2023-03-08T02:55:26.611Z,97658.59
2023-03-08T02:57:54.183Z,97646.34
2023-03-08T03:00:21.258Z,97643.00
2023-03-08T03:02:47.927Z,97645.50
2023-03-08T03:05:14.502Z,97647.81
2023-03-08T03:07:42.777Z,97644.41
2023-03-08T03:10:12.136Z,97645.41
2023-03-08T03:12:39.551Z,97646.56
2023-03-08T03:15:08.034Z,97646.34
2023-03-08T03:17:36.985Z,97640.25
2023-03-08T03:20:07.202Z,97639.41
2023-03-08T03:22:33.824Z,97643.00
2023-03-08T03:25:00.303Z,97640.13
2023-03-08T03:27:26.856Z,97635.31
2023-03-08T03:29:53.394Z,97626.44
2023-03-08T03:32:19.840Z,97617.56
2023-03-08T03:34:46.943Z,97609.75
2023-03-08T03:37:13.369Z,97610.63
2023-03-08T03:39:40.033Z,97615.44
2023-03-08T03:42:07.729Z,97611.81
2023-03-08T03:44:34.752Z,97608.09
2023-03-08T03:47:01.558Z,97604.88
2023-03-08T03:49:29.141Z,97594.56
2023-03-08T03:51:55.637Z,97598.16
2023-03-08T03:54:22.760Z,97595.38
2023-03-08T03:56:49.236Z,97599.72
2023-03-08T03:59:15.965Z,97590.22
2023-03-08T04:01:42.510Z,97597.44
2023-03-08T04:04:10.217Z,97600.19
2023-03-08T04:06:37.091Z,97587.88
2023-03-08T04:09:07.080Z,97598.16
2023-03-08T04:11:36.463Z,97597.19
2023-03-08T04:14:03.891Z,97597.31
2023-03-08T04:16:33.209Z,97585.44
2023-03-08T04:19:02.492Z,97587.25
2023-03-08T04:21:29.560Z,97569.75
2023-03-08T04:23:56.317Z,97570.59
2023-03-08T04:26:23.629Z,97570.19
2023-03-08T04:28:51.164Z,97567.94
2023-03-08T04:31:20.369Z,97561.84
2023-03-08T04:33:48.124Z,97553.66
2023-03-08T04:36:15.768Z,97553.66
2023-03-08T04:38:42.562Z,97555.47
2023-03-08T04:41:12.848Z,97553.69
2023-03-08T04:43:41.727Z,97552.84
2023-03-08T04:46:08.761Z,97540.13
2023-03-08T04:48:35.754Z,97539.88
2023-03-08T04:51:04.357Z,97537.34
2023-03-08T04:53:31.926Z,97528.25
2023-03-08T04:56:02.033Z,97530.19
2023-03-08T04:58:29.122Z,97517.81
2023-03-08T05:00:56.443Z,97508.22
2023-03-08T05:03:23.310Z,97508.47
2023-03-08T05:05:53.705Z,97498.25
2023-03-08T05:08:20.586Z,97488.06
2023-03-08T05:11:00.489Z,97481.72
2023-03-08T05:13:29.915Z,97480.91
2023-03-08T05:15:57.039Z,97480.44
2023-03-08T05:18:23.616Z,97474.19
2023-03-08T05:20:58.111Z,97470.97
2023-03-08T05:23:28.614Z,97466.28
2023-03-08T05:25:57.938Z,97466.88
2023-03-08T05:28:26.921Z,97459.09
2023-03-08T05:31:07.809Z,97456.47
2023-03-08T05:33:36.047Z,97455.59
2023-03-08T05:36:03.148Z,97446.03
2023-03-08T05:38:30.125Z,97444.69
2023-03-08T05:41:03.214Z,97435.53
2023-03-08T05:43:30.913Z,97425.00
2023-03-08T05:46:03.508Z,97414.44
2023-03-08T05:48:31.296Z,97408.25
2023-03-08T05:50:58.088Z,97406.81
2023-03-08T05:53:26.042Z,97411.09
2023-03-08T05:55:52.598Z,97413.53
2023-03-08T05:58:19.334Z,97401.31
2023-03-08T06:00:45.752Z,97402.38
2023-03-08T06:03:12.295Z,97404.91
2023-03-08T06:05:38.739Z,97386.44
2023-03-08T06:08:05.458Z,97379.69
2023-03-08T06:10:31.902Z,97373.25
2023-03-08T06:12:58.657Z,97364.00
2023-03-08T06:15:25.322Z,97362.91
2023-03-08T06:17:54.857Z,97362.22
2023-03-08T06:20:21.646Z,97367.94
2023-03-08T06:22:48.128Z,97357.31
2023-03-08T06:25:14.839Z,97342.97
2023-03-08T06:27:41.238Z,97335.88
2023-03-08T06:30:08.464Z,97323.91
2023-03-08T06:32:35.963Z,97324.16
2023-03-08T06:35:02.594Z,97322.84
2023-03-08T06:37:33.583Z,97311.75
2023-03-08T06:40:01.123Z,97307.19
2023-03-08T06:42:40.169Z,97295.88
2023-03-08T06:45:08.528Z,97291.22
2023-03-08T06:47:35.643Z,97291.81
2023-03-08T06:50:02.234Z,97291.53
2023-03-08T06:52:28.785Z,97283.31
2023-03-08T06:54:55.180Z,97274.34
2023-03-08T06:57:21.744Z,97258.66
2023-03-08T06:59:48.207Z,97262.13
2023-03-08T07:02:15.097Z,97262.44
2023-03-08T07:04:41.605Z,97251.88
2023-03-08T07:07:08.905Z,97246.19
2023-03-08T07:09:35.573Z,97238.31
2023-03-08T07:12:02.309Z,97226.09
2023-03-08T07:14:28.718Z,97220.81
2023-03-08T07:16:55.529Z,97214.47
2023-03-08T07:19:21.975Z,97210.44
2023-03-08T07:21:48.519Z,97207.84
2023-03-08T07:24:15.005Z,97188.22
2023-03-08T07:26:41.662Z,97186.03
2023-03-08T07:29:08.111Z,97187.41
2023-03-08T07:31:36.194Z,97184.25
2023-03-08T07:34:04.092Z,97174.78
2023-03-08T07:36:30.889Z,97176.44
2023-03-08T07:38:57.888Z,97180.75
2023-03-08T07:41:24.477Z,97172.28
2023-03-08T07:43:50.998Z,97171.44
2023-03-08T07:46:17.435Z,97174.47
2023-03-08T07:48:44.318Z,97169.50
2023-03-08T07:51:12.246Z,97161.13
2023-03-08T07:53:38.863Z,97161.69
2023-03-08T07:56:06.256Z,97158.34
2023-03-08T07:58:32.733Z,97162.13
2023-03-08T08:00:59.204Z,97160.72
2023-03-08T08:03:25.726Z,97160.59
2023-03-08T08:05:52.880Z,97156.81
2023-03-08T08:08:19.528Z,97151.00
2023-03-08T08:10:46.077Z,97157.53
2023-03-08T08:13:12.589Z,97154.06
2023-03-08T08:15:40.390Z,97151.25
2023-03-08T08:18:07.165Z,97152.25
2023-03-08T08:20:33.643Z,97145.41
2023-03-08T08:23:00.048Z,97139.06
2023-03-08T08:25:26.592Z,97133.88
2023-03-08T08:27:53.512Z,97136.25
2023-03-08T08:30:19.967Z,97128.59
2023-03-08T08:32:46.843Z,97123.84
2023-03-08T08:35:13.407Z,97113.00
2023-03-08T08:37:39.873Z,97109.09
2023-03-08T08:40:10.429Z,97108.81
2023-03-08T08:42:36.994Z,97112.41
2023-03-08T08:45:03.630Z,97103.66
2023-03-08T08:47:32.644Z,97106.03
2023-03-08T08:49:59.554Z,97102.25
2023-03-08T08:52:25.938Z,97100.53
2023-03-08T08:54:53.199Z,97091.25
2023-03-08T08:57:19.689Z,97083.84
2023-03-08T08:59:46.652Z,97085.38
2023-03-08T09:02:13.468Z,97083.19
2023-03-08T09:04:40.026Z,97078.03
2023-03-08T09:07:07.446Z,97073.53
2023-03-08T09:09:33.929Z,97071.69
2023-03-08T09:12:00.400Z,97071.59
2023-03-08T09:14:26.905Z,97069.53
2023-03-08T09:16:53.779Z,97062.28
2023-03-08T09:19:20.592Z,97054.38
2023-03-08T09:21:47.314Z,97056.41
2023-03-08T09:24:14.963Z,97054.94
2023-03-08T09:26:41.353Z,97063.59
2023-03-08T09:29:08.778Z,97064.44
2023-03-08T09:31:38.846Z,97060.81
2023-03-08T09:34:08.896Z,97056.31
2023-03-08T09:36:39.326Z,97049.00
2023-03-08T09:39:06.924Z,97045.09
2023-03-08T09:41:48.363Z,97032.09
2023-03-08T09:44:44.152Z,97029.31
2023-03-08T09:47:13.682Z,97029.47
2023-03-08T09:49:44.254Z,97033.25
2023-03-08T09:52:30.231Z,97027.13
2023-03-08T09:54:59.169Z,97032.91
2023-03-08T09:57:30.962Z,97021.59
2023-03-08T10:00:00.135Z,97020.63
2023-03-08T10:02:32.991Z,97020.84
2023-03-08T10:05:21.805Z,97020.91
2023-03-08T10:07:54.256Z,97017.03
2023-03-08T10:10:31.875Z,97006.78
2023-03-08T10:13:17.134Z,96999.06
2023-03-08T10:15:49.806Z,97009.09
2023-03-08T10:18:39.233Z,96997.56
2023-03-08T10:21:09.702Z,96990.31
2023-03-08T10:23:38.478Z,96988.41
2023-03-08T10:26:10.219Z,96986.44
2023-03-08T10:28:36.889Z,96975.50
2023-03-08T10:31:20.094Z,96973.91
2023-03-08T10:33:48.364Z,96982.00
2023-03-08T10:36:20.196Z,96975.63
2023-03-08T10:39:16.992Z,96975.44
2023-03-08T10:41:51.775Z,96974.34
2023-03-08T10:44:40.847Z,96962.44
2023-03-08T10:47:22.405Z,96967.63
2023-03-08T10:49:49.366Z,96964.31
2023-03-08T10:52:28.979Z,96966.81
2023-03-08T10:55:03.328Z,96971.66
2023-03-08T10:57:30.111Z,96970.59
2023-03-08T11:00:01.560Z,96976.09
2023-03-08T11:02:28.125Z,96979.41
2023-03-08T11:04:57.171Z,96975.88
2023-03-08T11:07:27.317Z,96976.81
2023-03-08T11:10:25.074Z,96975.63
2023-03-08T11:13:31.887Z,96978.66
2023-03-08T11:16:04.407Z,96977.88
2023-03-08T11:19:19.588Z,96979.22
2023-03-08T11:21:54.141Z,96978.91
2023-03-08T11:24:57.925Z,96971.88
2023-03-08T11:27:53.525Z,96960.09
2023-03-08T11:30:23.098Z,96955.91
2023-03-08T11:32:49.762Z,96959.72
2023-03-08T11:35:41.058Z,96953.66
2023-03-08T11:38:26.666Z,96943.66
2023-03-08T11:41:34.648Z,96941.50
2023-03-08T11:44:23.487Z,96937.75
2023-03-08T11:47:26.872Z,96936.28
2023-03-08T11:50:09.004Z,96928.31
2023-03-08T11:52:50.574Z,96917.69
2023-03-08T11:55:20.655Z,96925.97
2023-03-08T11:57:55.732Z,96925.97
2023-03-08T12:00:26.231Z,96919.81
2023-03-08T12:02:54.152Z,96919.81
2023-03-08T12:05:32.977Z,96906.38
2023-03-08T12:08:08.625Z,96900.91
2023-03-08T12:10:45.360Z,96906.69
2023-03-08T12:13:35.444Z,96906.19
2023-03-08T12:16:10.924Z,96907.28
2023-03-08T12:18:45.133Z,96898.63
2023-03-08T12:21:41.665Z,96891.22
2023-03-08T12:24:39.499Z,96899.59
2023-03-08T12:27:39.123Z,96905.53
2023-03-08T12:30:18.501Z,96901.56
2023-03-08T12:32:47.376Z,96898.22
2023-03-08T12:35:24.987Z,96898.34
2023-03-08T12:38:03.777Z,96884.88
2023-03-08T12:40:39.523Z,96879.56
2023-03-08T12:43:10.300Z,96884.56
2023-03-08T12:45:38.032Z,96885.19
2023-03-08T12:48:04.558Z,96883.03
2023-03-08T12:50:41.601Z,96872.81
2023-03-08T12:53:34.698Z,96862.50
2023-03-08T12:56:02.339Z,96873.81
2023-03-08T12:58:30.756Z,96874.53
2023-03-08T13:01:02.663Z,96884.94
2023-03-08T13:03:41.245Z,96877.16
2023-03-08T13:06:22.984Z,96881.31
2023-03-08T13:08:55.820Z,96886.47
2023-03-08T13:11:26.121Z,96872.69
2023-03-08T13:13:57.192Z,96882.13
2023-03-08T13:16:31.483Z,96882.28
2023-03-08T13:19:07.035Z,96876.66
2023-03-08T13:21:41.368Z,96873.19
2023-03-08T13:24:22.649Z,96874.97
2023-03-08T13:26:54.661Z,96869.66
2023-03-08T13:29:21.583Z,96880.47
2023-03-08T13:31:49.588Z,96879.16
2023-03-08T13:34:33.187Z,96865.53
2023-03-08T13:37:00.194Z,96870.34
2023-03-08T13:39:29.952Z,96856.91
2023-03-08T13:42:09.154Z,96879.97
2023-03-08T13:44:35.896Z,96876.00
2023-03-08T13:47:23.402Z,96861.84
2023-03-08T13:49:52.191Z,96859.56
2023-03-08T13:52:24.715Z,96853.28
2023-03-08T13:54:57.075Z,96851.59
2023-03-08T13:57:37.273Z,96835.13
2023-03-08T14:00:36.691Z,96841.31
2023-03-08T14:03:07.421Z,96839.16
2023-03-08T14:05:43.062Z,96847.13
2023-03-08T14:08:21.439Z,96849.63
2023-03-08T14:10:56.091Z,96849.59
2023-03-08T14:13:45.949Z,96843.81
2023-03-08T14:16:29.713Z,96840.19
2023-03-08T14:18:57.081Z,96831.69
2023-03-08T14:21:28.802Z,96827.72
2023-03-08T14:24:01.334Z,96824.06
2023-03-08T14:26:36.846Z,96821.25
2023-03-08T14:29:09.882Z,96827.06
2023-03-08T14:31:38.854Z,96818.91
2023-03-08T14:34:19.598Z,96822.22
2023-03-08T14:36:53.322Z,96825.88
2023-03-08T14:39:20.304Z,96822.06
2023-03-08T14:41:47.126Z,96813.94
2023-03-08T14:44:33.952Z,96811.28
2023-03-08T14:47:08.982Z,96809.94
2023-03-08T14:49:35.330Z,96802.16
2023-03-08T14:52:02.759Z,96800.19
2023-03-08T14:54:35.103Z,96798.66
2023-03-08T14:57:21.496Z,96786.41
2023-03-08T14:59:49.584Z,96790.19
2023-03-08T15:02:19.233Z,96793.50
2023-03-08T15:04:46.283Z,96799.13
2023-03-08T15:07:23.836Z,96797.47
2023-03-08T15:09:51.697Z,96793.81
2023-03-08T15:12:18.615Z,96790.78
2023-03-08T15:14:45.304Z,96794.13
2023-03-08T15:17:12.337Z,96792.44
2023-03-08T15:19:38.763Z,96806.38
2023-03-08T15:22:06.175Z,96815.09
2023-03-08T15:24:32.743Z,96817.25
2023-03-08T15:26:59.177Z,96820.88
2023-03-08T15:29:30.945Z,96835.75
2023-03-08T15:31:58.095Z,96831.81
2023-03-08T15:34:27.934Z,96817.88
2023-03-08T15:36:55.676Z,96816.84
2023-03-08T15:39:22.704Z,96808.44
2023-03-08T15:41:49.321Z,96813.91
2023-03-08T15:44:15.858Z,96804.47
2023-03-08T15:46:42.782Z,96796.38
2023-03-08T15:49:10.400Z,96787.25
2023-03-08T15:51:37.451Z,96794.53
2023-03-08T15:54:05.419Z,96777.94
2023-03-08T15:56:32.324Z,96788.03
2023-03-08T15:58:58.734Z,96790.38
2023-03-08T16:01:27.565Z,96795.00
2023-03-08T16:03:55.953Z,96787.00
2023-03-08T16:06:23.018Z,96795.63
2023-03-08T16:08:50.222Z,96791.69
2023-03-08T16:11:22.631Z,96774.00
2023-03-08T16:13:54.158Z,96787.94
2023-03-08T16:16:21.138Z,96787.28
2023-03-08T16:18:48.595Z,96786.63
2023-03-08T16:21:16.729Z,96795.22
2023-03-08T16:23:43.633Z,96791.09
2023-03-08T16:26:16.255Z,96799.88
2023-03-08T16:28:45.234Z,96788.44
2023-03-08T16:31:12.546Z,96804.50
2023-03-08T16:33:39.752Z,96810.78
2023-03-08T16:36:06.978Z,96819.59
2023-03-08T16:38:33.637Z,96830.50
2023-03-08T16:41:11.932Z,96811.63
2023-03-08T16:43:46.982Z,96805.13
2023-03-08T16:46:16.888Z,96806.91
2023-03-08T16:48:43.520Z,96794.84
2023-03-08T16:51:13.932Z,96789.38
2023-03-08T16:53:40.509Z,96786.72
2023-03-08T16:56:06.983Z,96788.81
2023-03-08T16:58:33.369Z,96798.34
2023-03-08T17:00:59.921Z,96796.16
2023-03-08T17:03:26.334Z,96796.00
2023-03-08T17:05:52.827Z,96793.31
2023-03-08T17:08:19.245Z,96801.06
2023-03-08T17:10:45.829Z,96800.72
2023-03-08T17:13:12.582Z,96804.53
2023-03-08T17:15:43.849Z,96803.19
2023-03-08T17:18:11.032Z,96805.50
2023-03-08T17:20:42.508Z,96809.72
2023-03-08T17:23:11.679Z,96806.72
2023-03-08T17:25:41.136Z,96793.66
2023-03-08T17:28:09.440Z,96812.34
2023-03-08T17:30:36.651Z,96815.31
2023-03-08T17:33:03.112Z,96821.72
2023-03-08T17:35:29.809Z,96812.34
2023-03-08T17:37:56.529Z,96814.94
2023-03-08T17:40:22.961Z,96813.94
2023-03-08T17:42:50.117Z,96821.53
2023-03-08T17:45:18.355Z,96818.34
2023-03-08T17:47:45.850Z,96821.16
2023-03-08T17:50:15.635Z,96821.34
2023-03-08T17:52:42.249Z,96814.22
2023-03-08T17:55:09.953Z,96823.13
2023-03-08T17:57:37.697Z,96820.13
2023-03-08T18:00:06.641Z,96827.44
2023-03-08T18:02:33.607Z,96820.97
2023-03-08T18:05:00.160Z,96823.06
2023-03-08T18:07:28.198Z,96818.25
2023-03-08T18:09:54.642Z,96834.66
2023-03-08T18:12:22.693Z,96828.03
2023-03-08T18:14:52.361Z,96829.66
2023-03-08T18:17:20.194Z,96824.81
2023-03-08T18:19:47.940Z,96828.03
2023-03-08T18:22:15.549Z,96820.38
2023-03-08T18:24:42.211Z,96826.66
2023-03-08T18:27:08.866Z,96825.31
2023-03-08T18:29:36.481Z,96837.25
2023-03-08T18:32:05.140Z,96837.25
2023-03-08T18:34:31.694Z,96823.25
2023-03-08T18:36:58.736Z,96827.16
2023-03-08T18:39:25.838Z,96830.47
2023-03-08T18:41:54.403Z,96834.44
2023-03-08T18:44:21.338Z,96837.78
2023-03-08T18:46:48.464Z,96839.22
2023-03-08T18:49:15.824Z,96838.91
2023-03-08T18:51:43.032Z,96836.91
2023-03-08T18:54:15.578Z,96822.50
2023-03-08T18:56:44.660Z,96818.41
2023-03-08T18:59:13.499Z,96816.81
2023-03-08T19:01:40.672Z,96829.50
2023-03-08T19:04:08.006Z,96839.44
2023-03-08T19:06:36.062Z,96849.56
2023-03-08T19:09:28.796Z,96845.56
2023-03-08T19:11:55.188Z,96842.59
2023-03-08T19:14:21.782Z,96827.06
2023-03-08T19:16:48.228Z,96830.06
2023-03-08T19:19:15.754Z,96828.41
2023-03-08T19:21:45.713Z,96832.41
2023-03-08T19:24:13.786Z,96841.66
2023-03-08T19:26:43.008Z,96833.22
2023-03-08T19:29:18.964Z,96828.16
2023-03-08T19:31:49.975Z,96835.72
2023-03-08T19:34:17.827Z,96833.13
2023-03-08T19:36:45.834Z,96817.81
2023-03-08T19:39:20.790Z,96828.09
2023-03-08T19:41:49.341Z,96823.28
2023-03-08T19:44:15.762Z,96819.31
2023-03-08T19:46:42.665Z,96824.44
2023-03-08T19:49:12.963Z,96823.97
2023-03-08T19:51:39.655Z,96825.88
2023-03-08T19:54:07.054Z,96825.91
2023-03-08T19:56:33.980Z,96823.91
2023-03-08T19:59:01.129Z,96809.00
2023-03-08T20:01:28.242Z,96814.28
2023-03-08T20:03:55.567Z,96830.19
2023-03-08T20:06:27.964Z,96826.56
2023-03-08T20:08:55.525Z,96824.22
2023-03-08T20:11:21.934Z,96821.28
2023-03-08T20:13:48.663Z,96811.31
2023-03-08T20:16:15.538Z,96812.00
2023-03-08T20:18:42.018Z,96819.78
2023-03-08T20:21:08.471Z,96815.66
2023-03-08T20:23:35.191Z,96817.47
2023-03-08T20:26:02.835Z,96822.81
2023-03-08T20:28:30.108Z,96812.69
2023-03-08T20:30:56.560Z,96812.72
2023-03-08T20:33:22.975Z,96809.41
2023-03-08T20:36:00.657Z,96807.13
2023-03-08T20:38:27.399Z,96802.31
2023-03-08T20:41:02.992Z,96797.84
2023-03-08T20:43:30.766Z,96798.97
2023-03-08T20:46:00.094Z,96803.81
2023-03-08T20:48:26.649Z,96796.66
2023-03-08T20:50:59.292Z,96809.94
2023-03-08T20:53:27.051Z,96801.63
2023-03-08T20:55:53.543Z,96804.13
2023-03-08T20:58:20.945Z,96803.31
2023-03-08T21:00:47.402Z,96791.88
2023-03-08T21:03:14.040Z,96795.38
2023-03-08T21:05:40.643Z,96784.59
2023-03-08T21:08:07.250Z,96792.06
2023-03-08T21:10:33.751Z,96788.56
2023-03-08T21:13:00.357Z,96785.75
2023-03-08T21:15:26.964Z,96778.44
2023-03-08T21:17:53.583Z,96775.09
2023-03-08T21:20:20.917Z,96768.34
2023-03-08T21:22:47.415Z,96767.50
2023-03-08T21:25:13.871Z,96764.03
2023-03-08T21:27:40.429Z,96761.38
2023-03-08T21:30:07.858Z,96757.72
2023-03-08T21:32:34.339Z,96753.75
2023-03-08T21:35:01.049Z,96759.03
2023-03-08T21:37:27.757Z,96759.03
2023-03-08T21:39:54.209Z,96764.34
2023-03-08T21:42:20.820Z,96761.84
2023-03-08T21:44:47.243Z,96757.06
2023-03-08T21:47:14.232Z,96766.03
2023-03-08T21:49:40.890Z,96763.34
2023-03-08T21:52:07.837Z,96753.72
2023-03-08T21:54:34.218Z,96754.59
2023-03-08T21:57:01.040Z,96762.38
2023-03-08T21:59:29.219Z,96764.00
2023-03-08T22:01:58.885Z,96764.50
2023-03-08T22:04:26.835Z,96769.34
2023-03-08T22:06:55.788Z,96769.34
2023-03-08T22:09:23.246Z,96756.41
2023-03-08T22:11:51.458Z,96752.75
2023-03-08T22:14:17.903Z,96756.72
2023-03-08T22:16:44.551Z,96739.13
2023-03-08T22:19:11.470Z,96746.28
2023-03-08T22:21:38.671Z,96727.19
2023-03-08T22:24:05.373Z,96736.81
2023-03-08T22:26:32.655Z,96723.53
2023-03-08T22:28:59.740Z,96721.88
2023-03-08T22:31:29.257Z,96720.41
2023-03-08T22:33:56.189Z,96715.59
2023-03-08T22:36:23.103Z,96723.38
2023-03-08T22:38:51.376Z,96724.53
2023-03-08T22:41:23.919Z,96718.06
2023-03-08T22:43:51.794Z,96706.63
2023-03-08T22:46:24.143Z,96697.88
2023-03-08T22:48:51.974Z,96701.16
2023-03-08T22:51:20.763Z,96687.41
2023-03-08T22:53:47.996Z,96692.56
2023-03-08T22:56:33.078Z,96688.06
2023-03-08T22:59:01.509Z,96688.06
2023-03-08T23:01:30.035Z,96684.59
2023-03-08T23:03:59.834Z,96680.28
2023-03-08T23:06:29.002Z,96682.75
2023-03-08T23:08:59.721Z,96686.44
2023-03-08T23:11:26.851Z,96685.41
2023-03-08T23:13:53.999Z,96681.94
2023-03-08T23:16:21.310Z,96691.03
2023-03-08T23:18:49.684Z,96694.34
2023-03-08T23:21:18.273Z,96688.72
2023-03-08T23:23:45.118Z,96696.44
2023-03-08T23:26:14.907Z,96700.31
2023-03-08T23:28:41.772Z,96699.66
2023-03-08T23:31:14.018Z,96697.97
2023-03-08T23:33:41.555Z,96693.38
2023-03-08T23:36:09.975Z,96673.75
2023-03-08T23:38:36.949Z,96675.25
2023-03-08T23:41:08.291Z,96685.19
2023-03-08T23:43:37.096Z,96678.91
2023-03-08T23:46:08.083Z,96667.66
2023-03-08T23:48:35.449Z,96670.47
2023-03-08T23:51:12.043Z,96663.28
2023-03-08T23:53:38.664Z,96655.19
2023-03-08T23:56:06.956Z,96656.53
2023-03-08T23:58:33.637Z,96644.91
